createdAt,value
2019-04-16T00:00:54.618Z,24.17
2019-04-16T00:03:23.889Z,19.43
2019-04-16T00:05:58.473Z,17.97
2019-04-16T00:08:28.218Z,16.40
2019-04-16T00:11:06.288Z,18.63
2019-04-16T00:13:36.893Z,17.47
2019-04-16T00:16:06.033Z,14.43
2019-04-16T00:18:57.202Z,16.13
2019-04-16T00:21:22.050Z,23.17
2019-04-16T00:23:52.771Z,22.23
2019-04-16T00:26:26.490Z,22.03
2019-04-16T00:28:52.449Z,19.53
2019-04-16T00:31:23.477Z,18.17
2019-04-16T00:33:52.636Z,15.23
2019-04-16T00:36:21.646Z,15.00
2019-04-16T00:38:53.806Z,18.00
2019-04-16T00:41:21.318Z,18.13
2019-04-16T00:43:52.280Z,18.23
2019-04-16T00:46:21.310Z,19.23
2019-04-16T00:48:50.350Z,17.53
2019-04-16T00:51:19.380Z,17.13
2019-04-16T00:53:49.361Z,18.70
2019-04-16T00:56:18.377Z,17.27
2019-04-16T00:58:49.402Z,15.73
2019-04-16T01:01:18.030Z,16.27
2019-04-16T01:03:47.039Z,15.27
2019-04-16T01:06:16.066Z,16.47
2019-04-16T01:08:54.385Z,12.33
2019-04-16T01:11:15.823Z,11.93
2019-04-16T01:13:45.119Z,19.13
2019-04-16T01:16:14.526Z,24.50
2019-04-16T01:18:44.506Z,30.47
2019-04-16T01:21:14.793Z,23.50
2019-04-16T01:23:48.553Z,24.90
2019-04-16T01:26:14.575Z,20.77
2019-04-16T01:28:45.219Z,17.00
2019-04-16T01:31:15.880Z,19.93
2019-04-16T01:33:47.357Z,22.10
2019-04-16T01:36:20.319Z,26.57
2019-04-16T01:38:50.561Z,21.00
2019-04-16T01:41:21.915Z,20.07
2019-04-16T01:43:54.249Z,22.67
2019-04-16T01:46:22.391Z,19.77
2019-04-16T01:48:51.409Z,24.20
2019-04-16T01:51:20.444Z,26.80
2019-04-16T01:53:52.366Z,26.53
2019-04-16T01:56:20.099Z,26.97
2019-04-16T01:58:49.130Z,20.27
2019-04-16T02:01:18.190Z,17.13
2019-04-16T02:03:48.845Z,20.50
2019-04-16T02:06:17.940Z,19.10
2019-04-16T02:08:46.897Z,19.60
2019-04-16T02:11:15.926Z,17.13
2019-04-16T02:13:46.090Z,14.00
2019-04-16T02:16:16.547Z,18.70
2019-04-16T02:18:45.577Z,15.97
2019-04-16T02:21:14.600Z,17.93
2019-04-16T02:23:45.362Z,26.40
2019-04-16T02:26:14.318Z,22.80
2019-04-16T02:28:43.317Z,24.10
2019-04-16T02:31:15.660Z,24.43
2019-04-16T02:34:07.312Z,15.67
2019-04-16T02:36:36.351Z,20.33
2019-04-16T02:39:06.911Z,18.70
2019-04-16T02:41:36.037Z,17.47
2019-04-16T02:44:05.060Z,16.60
2019-04-16T02:46:34.077Z,18.63
2019-04-16T02:49:03.156Z,19.57
2019-04-16T02:51:39.612Z,17.90
2019-04-16T02:54:06.115Z,15.53
2019-04-16T02:56:36.788Z,17.43
2019-04-16T02:59:11.787Z,18.47
2019-04-16T03:01:39.850Z,19.57
2019-04-16T03:04:10.578Z,21.90
2019-04-16T03:06:39.632Z,18.53
2019-04-16T03:09:09.861Z,19.40
2019-04-16T03:11:39.329Z,16.40
2019-04-16T03:14:08.328Z,16.77
2019-04-16T03:16:39.060Z,15.30
2019-04-16T03:19:09.714Z,18.90
2019-04-16T03:21:38.710Z,17.10
2019-04-16T03:24:09.290Z,18.47
2019-04-16T03:26:38.360Z,18.70
2019-04-16T03:29:07.389Z,24.83
2019-04-16T03:31:36.394Z,22.23
2019-04-16T03:34:05.427Z,24.60
2019-04-16T03:36:34.425Z,17.93
2019-04-16T03:39:05.025Z,22.00
2019-04-16T03:41:34.160Z,21.97
2019-04-16T03:44:04.095Z,19.90
2019-04-16T03:46:33.804Z,28.53
2019-04-16T03:49:02.850Z,19.13
2019-04-16T03:51:32.585Z,22.10
2019-04-16T03:54:04.916Z,25.53
2019-04-16T03:56:33.198Z,21.77
2019-04-16T03:59:02.202Z,19.50
2019-04-16T04:01:31.209Z,23.47
2019-04-16T04:04:01.380Z,21.57
2019-04-16T04:06:30.373Z,20.20
2019-04-16T04:08:59.378Z,24.07
2019-04-16T04:11:28.374Z,23.67
2019-04-16T04:13:57.384Z,24.17
2019-04-16T04:16:26.393Z,20.40
2019-04-16T04:18:55.417Z,23.37
2019-04-16T04:21:24.436Z,20.83
2019-04-16T04:23:53.436Z,24.43
2019-04-16T04:26:22.550Z,22.77
2019-04-16T04:28:52.657Z,23.40
2019-04-16T04:31:21.710Z,23.43
2019-04-16T04:33:50.720Z,24.37
2019-04-16T04:36:22.665Z,26.83
2019-04-16T04:38:50.343Z,27.90
2019-04-16T04:41:20.151Z,23.77
2019-04-16T04:43:50.134Z,25.53
2019-04-16T04:46:19.205Z,23.13
2019-04-16T04:48:48.221Z,18.53
2019-04-16T04:51:17.200Z,22.67
2019-04-16T04:53:47.583Z,22.00
2019-04-16T04:56:19.329Z,22.63
2019-04-16T04:58:47.442Z,19.17
2019-04-16T05:01:18.042Z,16.97
2019-04-16T05:03:49.002Z,20.00
2019-04-16T05:06:19.643Z,17.87
2019-04-16T05:08:48.810Z,44.87
2019-04-16T05:11:17.843Z,124.77
2019-04-16T05:13:46.893Z,683.93
2019-04-16T05:16:15.889Z,985.63
2019-04-16T05:18:45.878Z,1999.90
2019-04-16T05:21:17.861Z,1999.90
2019-04-16T05:23:45.544Z,1999.90
2019-04-16T05:26:14.608Z,1999.90
2019-04-16T05:28:45.433Z,1381.67
2019-04-16T05:31:14.864Z,945.20
2019-04-16T05:33:44.004Z,919.57
2019-04-16T05:36:14.579Z,911.27
2019-04-16T05:38:43.701Z,866.23
2019-04-16T05:41:17.000Z,893.20
2019-04-16T05:43:43.367Z,890.50
2019-04-16T05:46:13.372Z,915.53
2019-04-16T05:48:42.376Z,882.80
2019-04-16T05:51:12.588Z,927.93
2019-04-16T05:53:43.229Z,910.50
2019-04-16T05:56:13.907Z,897.90
2019-04-16T05:58:42.915Z,929.43
2019-04-16T06:01:14.121Z,934.50
2019-04-16T06:03:43.576Z,1011.40
2019-04-16T06:06:12.599Z,1053.37
2019-04-16T06:08:41.799Z,1045.90
2019-04-16T06:11:10.862Z,1068.33
2019-04-16T06:13:44.529Z,1068.67
2019-04-16T06:16:13.813Z,1087.17
2019-04-16T06:18:42.883Z,1028.57
2019-04-16T06:21:11.957Z,1086.90
2019-04-16T06:23:42.601Z,1106.20
2019-04-16T06:26:16.287Z,1116.27
2019-04-16T06:28:45.538Z,1127.30
2019-04-16T06:31:16.212Z,1107.85
2019-04-16T06:33:46.882Z,1110.25
2019-04-16T06:36:17.955Z,1088.83
2019-04-16T06:38:48.633Z,1064.38
2019-04-16T06:41:19.429Z,1024.20
2019-04-16T06:43:50.065Z,1079.50
2019-04-16T06:46:21.121Z,1086.70
2019-04-16T06:48:50.768Z,1062.37
2019-04-16T06:51:21.608Z,968.20
2019-04-16T06:53:54.011Z,1075.07
2019-04-16T06:56:24.831Z,994.97
2019-04-16T06:58:57.470Z,1001.73
2019-04-16T07:01:27.841Z,995.30
2019-04-16T07:03:59.742Z,1067.13
2019-04-16T07:06:35.941Z,1090.83
2019-04-16T07:09:03.002Z,1242.50
2019-04-16T07:11:35.158Z,1005.63
2019-04-16T07:14:04.161Z,1033.80
2019-04-16T07:16:33.188Z,1044.83
2019-04-16T07:19:02.228Z,1098.80
2019-04-16T07:21:31.238Z,1020.40
2019-04-16T07:24:00.326Z,1116.83
2019-04-16T07:26:29.330Z,1132.93
2019-04-16T07:29:00.238Z,1088.20
2019-04-16T07:31:34.265Z,1069.20
2019-04-16T07:34:05.392Z,1110.60
2019-04-16T07:36:34.530Z,991.10
2019-04-16T07:39:06.736Z,1200.63
2019-04-16T07:41:37.417Z,985.40
2019-04-16T07:44:10.980Z,988.50
2019-04-16T07:46:40.379Z,1030.13
2019-04-16T07:49:11.060Z,1325.83
2019-04-16T07:51:41.722Z,1047.13
2019-04-16T07:54:12.417Z,1058.63
2019-04-16T07:56:43.078Z,1042.03
2019-04-16T07:59:12.122Z,1080.37
2019-04-16T08:01:44.091Z,1045.70
2019-04-16T08:04:11.808Z,1065.33
2019-04-16T08:06:46.203Z,912.87
2019-04-16T08:09:11.647Z,913.30
2019-04-16T08:11:41.133Z,922.33
2019-04-16T08:14:14.598Z,836.87
2019-04-16T08:16:47.695Z,918.30
2019-04-16T08:19:15.214Z,1021.47
2019-04-16T08:21:44.644Z,1004.33
2019-04-16T08:24:15.683Z,823.33
2019-04-16T08:26:45.377Z,830.03
2019-04-16T08:29:14.560Z,869.17
2019-04-16T08:31:45.230Z,1118.80
2019-04-16T08:34:14.266Z,896.63
2019-04-16T08:36:43.292Z,976.67
2019-04-16T08:39:14.354Z,811.20
2019-04-16T08:41:43.371Z,987.97
2019-04-16T08:44:12.402Z,895.50
2019-04-16T08:46:41.402Z,900.97
2019-04-16T08:49:10.482Z,1037.50
2019-04-16T08:51:39.523Z,1399.70
2019-04-16T08:54:08.555Z,1025.67
2019-04-16T08:56:37.575Z,1062.93
2019-04-16T08:59:09.784Z,1028.27
2019-04-16T09:01:37.313Z,1017.70
2019-04-16T09:04:06.360Z,996.45
2019-04-16T09:06:35.543Z,981.27
2019-04-16T09:09:12.904Z,1058.98
2019-04-16T09:11:37.673Z,1035.13
2019-04-16T09:14:07.799Z,986.28
2019-04-16T09:16:38.496Z,1026.40
2019-04-16T09:19:10.264Z,1051.15
2019-04-16T09:21:43.443Z,1022.68
2019-04-16T09:24:11.662Z,1098.95
2019-04-16T09:26:43.865Z,1021.43
2019-04-16T09:29:14.591Z,1053.33
2019-04-16T09:31:45.318Z,1076.75
2019-04-16T09:34:15.982Z,1002.07
2019-04-16T09:36:46.716Z,1041.10
2019-04-16T09:39:20.258Z,1055.23
2019-04-16T09:41:48.657Z,971.05
2019-04-16T09:44:17.767Z,1039.20
2019-04-16T09:46:50.856Z,1024.48
2019-04-16T09:49:17.701Z,1020.30
2019-04-16T09:51:50.330Z,978.27
2019-04-16T09:54:19.357Z,1025.58
2019-04-16T09:56:48.363Z,997.15
2019-04-16T09:59:19.034Z,997.42
2019-04-16T10:01:49.717Z,1091.28
2019-04-16T10:04:19.956Z,988.12
2019-04-16T10:06:48.990Z,920.73
2019-04-16T10:09:21.964Z,1087.10
2019-04-16T10:11:48.771Z,979.00
2019-04-16T10:14:17.794Z,917.65
2019-04-16T10:16:46.827Z,972.85
2019-04-16T10:19:15.921Z,959.50
2019-04-16T10:21:44.910Z,921.27
2019-04-16T10:24:14.124Z,888.78
2019-04-16T10:26:44.733Z,989.15
2019-04-16T10:29:15.691Z,1087.35
2019-04-16T10:31:44.928Z,877.33
2019-04-16T10:34:14.063Z,904.48
2019-04-16T10:36:43.073Z,963.65
2019-04-16T10:39:13.917Z,868.28
2019-04-16T10:41:42.950Z,919.25
2019-04-16T10:44:13.755Z,902.33
2019-04-16T10:46:44.517Z,913.10
2019-04-16T10:49:15.488Z,1999.90
2019-04-16T10:51:46.247Z,1032.45
2019-04-16T10:54:17.009Z,885.70
2019-04-16T10:56:47.658Z,979.23
2019-04-16T10:59:18.393Z,895.83
2019-04-16T11:01:49.052Z,1217.10
2019-04-16T11:04:19.813Z,954.50
2019-04-16T11:06:50.571Z,950.55
2019-04-16T11:09:19.641Z,903.90
2019-04-16T11:11:48.903Z,967.77
2019-04-16T11:14:17.973Z,892.30
2019-04-16T11:16:49.614Z,1143.80
2019-04-16T11:19:18.806Z,1183.80
2019-04-16T11:21:47.891Z,933.23
2019-04-16T11:24:20.313Z,943.33
2019-04-16T11:26:47.544Z,1069.58
2019-04-16T11:29:16.982Z,969.17
2019-04-16T11:31:46.167Z,1010.30
2019-04-16T11:34:15.252Z,961.63
2019-04-16T11:36:44.242Z,912.45
2019-04-16T11:39:13.275Z,960.28
2019-04-16T11:41:42.286Z,1878.65
2019-04-16T11:44:15.553Z,1094.70
2019-04-16T11:46:41.994Z,1023.42
2019-04-16T11:49:11.060Z,1009.40
2019-04-16T11:51:40.067Z,1074.68
2019-04-16T11:54:11.462Z,947.65
2019-04-16T11:56:39.731Z,949.15
2019-04-16T11:59:08.909Z,1029.80
2019-04-16T12:01:39.576Z,992.65
2019-04-16T12:04:10.977Z,936.33
2019-04-16T12:06:43.533Z,953.70
2019-04-16T12:09:14.220Z,967.02
2019-04-16T12:11:44.930Z,1021.87
2019-04-16T12:14:28.656Z,996.75
2019-04-16T12:16:46.254Z,947.05
2019-04-16T12:19:17.072Z,916.83
2019-04-16T12:21:47.749Z,997.57
2019-04-16T12:24:18.647Z,1005.02
2019-04-16T12:26:49.515Z,1007.85
2019-04-16T12:29:23.079Z,926.67
2019-04-16T12:31:52.634Z,1399.72
2019-04-16T12:34:23.294Z,1018.72
2019-04-16T12:36:53.941Z,962.18
2019-04-16T12:39:24.722Z,1011.35
2019-04-16T12:41:55.362Z,1065.78
2019-04-16T12:44:26.082Z,968.67
2019-04-16T12:46:56.897Z,997.27
2019-04-16T12:49:27.764Z,1068.18
2019-04-16T12:51:58.700Z,961.92
2019-04-16T12:54:29.626Z,1093.10
2019-04-16T12:57:00.549Z,949.83
2019-04-16T12:59:32.148Z,988.92
2019-04-16T13:02:03.207Z,1042.33
2019-04-16T13:04:33.997Z,1027.08
2019-04-16T13:07:04.924Z,988.87
2019-04-16T13:09:35.587Z,982.38
2019-04-16T13:12:09.445Z,1011.30
2019-04-16T13:14:38.664Z,1095.38
2019-04-16T13:17:09.341Z,987.88
2019-04-16T13:19:40.110Z,1004.38
2019-04-16T13:22:10.782Z,984.90
2019-04-16T13:24:41.463Z,942.25
2019-04-16T13:27:12.379Z,994.52
2019-04-16T13:29:41.423Z,997.02
2019-04-16T13:32:10.509Z,1029.20
2019-04-16T13:34:39.531Z,979.72
2019-04-16T13:37:08.621Z,1305.50
2019-04-16T13:39:40.403Z,1091.15
2019-04-16T13:42:09.703Z,941.70
2019-04-16T13:44:40.641Z,940.30
2019-04-16T13:47:10.445Z,994.67
2019-04-16T13:49:41.149Z,1094.75
2019-04-16T13:52:10.364Z,957.67
2019-04-16T13:54:42.747Z,954.70
2019-04-16T13:57:13.432Z,1084.95
2019-04-16T13:59:44.098Z,963.10
2019-04-16T14:02:17.868Z,961.90
2019-04-16T14:04:45.445Z,988.67
2019-04-16T14:07:14.567Z,1036.05
2019-04-16T14:09:44.390Z,1053.95
2019-04-16T14:12:13.842Z,1006.58
2019-04-16T14:14:43.136Z,945.45
2019-04-16T14:17:17.658Z,1003.73
2019-04-16T14:19:44.843Z,970.20
2019-04-16T14:22:14.200Z,1005.07
2019-04-16T14:24:43.270Z,1013.92
2019-04-16T14:27:14.374Z,931.02
2019-04-16T14:29:43.096Z,1006.22
2019-04-16T14:32:15.262Z,980.12
2019-04-16T14:34:45.959Z,1367.40
2019-04-16T14:37:15.122Z,1043.75
2019-04-16T14:39:46.257Z,1121.90
2019-04-16T14:42:15.347Z,977.73
2019-04-16T14:44:46.036Z,984.25
2019-04-16T14:47:15.054Z,1019.65
2019-04-16T14:49:44.121Z,972.52
2019-04-16T14:52:13.138Z,1004.92
2019-04-16T14:54:44.021Z,1019.40
2019-04-16T15:03:47.871Z,986.92
2019-04-16T15:06:19.645Z,960.17
2019-04-16T15:08:50.970Z,928.35
2019-04-16T15:11:21.669Z,1006.20
2019-04-16T15:13:50.835Z,974.15
2019-04-16T15:16:22.405Z,936.77
2019-04-16T15:18:53.063Z,952.25
2019-04-16T15:21:23.741Z,953.60
2019-04-16T15:23:54.350Z,965.98
2019-04-16T15:26:25.017Z,958.75
2019-04-16T15:28:56.124Z,939.78
2019-04-16T15:31:26.802Z,969.70
2019-04-16T15:33:57.613Z,942.42
2019-04-16T15:36:28.377Z,986.60
2019-04-16T15:39:02.872Z,996.42
2019-04-16T15:41:32.966Z,940.08
2019-04-16T15:44:03.721Z,1011.75
2019-04-16T15:46:35.235Z,976.52
2019-04-16T15:49:06.230Z,1044.95
2019-04-16T15:51:36.908Z,1001.33
2019-04-16T15:54:07.843Z,957.83
2019-04-16T15:56:38.517Z,946.37
2019-04-16T15:59:09.111Z,913.30
2019-04-16T16:01:40.014Z,1007.60
2019-04-16T16:04:10.669Z,975.02
2019-04-16T16:06:41.439Z,1011.53
2019-04-16T16:09:12.158Z,956.05
2019-04-16T16:11:44.575Z,970.55
2019-04-16T16:14:14.900Z,1013.33
2019-04-16T16:16:43.984Z,977.17
2019-04-16T16:19:13.029Z,967.83
2019-04-16T16:21:42.081Z,980.60
2019-04-16T16:24:11.105Z,965.53
2019-04-16T16:26:41.114Z,952.97
2019-04-16T16:29:10.207Z,1010.73
2019-04-16T16:31:39.237Z,997.45
2019-04-16T16:34:09.538Z,993.43
2019-04-16T16:36:40.710Z,948.08
2019-04-16T16:39:10.294Z,961.55
2019-04-16T16:41:40.934Z,1010.85
2019-04-16T16:44:09.968Z,1084.20
2019-04-16T16:46:55.689Z,1077.47
2019-04-16T16:49:11.406Z,1064.75
2019-04-16T16:51:42.139Z,966.25
2019-04-16T16:54:12.935Z,1008.48
2019-04-16T16:56:43.704Z,1025.45
2019-04-16T16:59:14.445Z,1015.05
2019-04-16T17:01:45.108Z,1050.40
2019-04-16T17:04:15.758Z,990.50
2019-04-16T17:06:44.901Z,1028.78
2019-04-16T17:09:15.716Z,1020.08
2019-04-16T17:11:44.785Z,1012.60
2019-04-16T17:14:13.818Z,987.55
2019-04-16T17:16:42.816Z,983.87
2019-04-16T17:19:11.839Z,980.93
2019-04-16T17:21:40.850Z,953.53
2019-04-16T17:24:09.874Z,938.33
2019-04-16T17:26:38.877Z,955.35
2019-04-16T17:29:07.903Z,881.30
2019-04-16T17:31:37.009Z,857.37
2019-04-16T17:34:06.099Z,888.43
2019-04-16T17:36:35.147Z,858.60
2019-04-16T17:39:09.574Z,849.70
2019-04-16T17:41:39.851Z,942.73
2019-04-16T17:44:10.743Z,817.77
2019-04-16T17:46:41.406Z,883.97
2019-04-16T17:49:12.066Z,845.20
2019-04-16T17:51:42.737Z,780.60
2019-04-16T17:54:13.555Z,776.27
2019-04-16T17:56:44.195Z,753.37
2019-04-16T17:59:14.935Z,741.63
2019-04-16T18:01:45.586Z,698.30
2019-04-16T18:04:16.305Z,724.13
2019-04-16T18:06:47.042Z,780.50
2019-04-16T18:09:17.746Z,748.17
2019-04-16T18:11:48.444Z,695.83
2019-04-16T18:14:19.568Z,710.03
2019-04-16T18:16:54.070Z,707.73
2019-04-16T18:19:24.830Z,763.23
2019-04-16T18:21:55.654Z,708.37
2019-04-16T18:24:26.811Z,695.50
2019-04-16T18:26:57.812Z,710.33
2019-04-16T18:29:31.720Z,692.60
2019-04-16T18:32:01.648Z,718.83
2019-04-16T18:34:31.368Z,746.20
2019-04-16T18:37:01.088Z,731.23
2019-04-16T18:39:37.170Z,704.17
2019-04-16T18:42:04.994Z,743.93
2019-04-16T18:44:36.031Z,730.67
2019-04-16T18:47:10.554Z,706.37
2019-04-16T18:49:38.566Z,680.07
2019-04-16T18:52:07.659Z,724.00
2019-04-16T18:54:36.691Z,725.00
2019-04-16T18:57:05.728Z,698.93
2019-04-16T18:59:34.945Z,739.93
2019-04-16T19:02:08.701Z,763.57
2019-04-16T19:04:37.421Z,721.10
2019-04-16T19:07:07.689Z,733.73
2019-04-16T19:09:36.674Z,734.00
2019-04-16T19:12:05.701Z,712.27
2019-04-16T19:14:36.675Z,733.03
2019-04-16T19:17:05.788Z,752.93
2019-04-16T19:19:34.810Z,746.30
2019-04-16T19:22:03.956Z,739.27
2019-04-16T19:24:34.101Z,746.93
2019-04-16T19:27:03.273Z,729.97
2019-04-16T19:29:32.401Z,745.83
2019-04-16T19:32:01.462Z,692.93
2019-04-16T19:34:30.520Z,715.50
2019-04-16T19:37:01.007Z,715.57
2019-04-16T19:39:30.292Z,720.07
2019-04-16T19:41:59.400Z,720.73
2019-04-16T19:44:28.468Z,706.37
2019-04-16T19:46:57.502Z,712.67
2019-04-16T19:49:26.534Z,722.40
2019-04-16T19:51:55.569Z,699.90
2019-04-16T19:54:24.589Z,712.67
2019-04-16T19:56:53.629Z,737.00
2019-04-16T19:59:22.579Z,705.67
2019-04-16T20:01:51.624Z,698.50
2019-04-16T20:04:20.806Z,682.77
2019-04-16T20:06:49.824Z,660.43
2019-04-16T20:09:18.919Z,665.87
2019-04-16T20:11:47.950Z,660.80
2019-04-16T20:14:16.978Z,687.63
2019-04-16T20:16:46.078Z,656.20
2019-04-16T20:19:18.005Z,709.53
2019-04-16T20:21:48.927Z,643.83
2019-04-16T20:24:17.932Z,654.10
2019-04-16T20:26:46.951Z,659.53
2019-04-16T20:29:16.024Z,672.90
2019-04-16T20:31:45.103Z,687.60
2019-04-16T20:34:17.879Z,681.90
2019-04-16T20:36:44.826Z,664.73
2019-04-16T20:39:14.171Z,680.30
2019-04-16T20:41:43.704Z,679.90
2019-04-16T20:44:12.785Z,676.37
2019-04-16T20:46:41.891Z,661.13
2019-04-16T20:49:11.218Z,671.77
2019-04-16T20:51:44.254Z,672.77
2019-04-16T20:54:14.032Z,638.70
2019-04-16T20:56:43.238Z,667.40
2019-04-16T20:59:12.278Z,685.23
2019-04-16T21:01:41.283Z,680.53
2019-04-16T21:04:14.201Z,701.03
2019-04-16T21:06:43.277Z,668.20
2019-04-16T21:09:12.289Z,656.00
2019-04-16T21:11:41.915Z,665.70
2019-04-16T21:14:11.933Z,657.97
2019-04-16T21:16:40.947Z,644.60
2019-04-16T21:19:22.509Z,675.53
2019-04-16T21:21:40.632Z,678.93
2019-04-16T21:24:13.385Z,645.17
2019-04-16T21:26:40.322Z,668.67
2019-04-16T21:29:14.213Z,716.40
2019-04-16T21:31:43.376Z,683.47
2019-04-16T21:34:14.037Z,660.90
2019-04-16T21:36:44.613Z,677.13
2019-04-16T21:39:17.427Z,668.17
2019-04-16T21:41:46.290Z,690.47
2019-04-16T21:44:15.376Z,705.03
2019-04-16T21:46:44.377Z,690.63
2019-04-16T21:49:14.624Z,695.20
2019-04-16T21:51:45.404Z,697.93
2019-04-16T21:54:14.601Z,748.37
2019-04-16T21:56:43.974Z,724.00
2019-04-16T21:59:13.325Z,732.93
2019-04-16T22:01:44.234Z,731.40
2019-04-16T22:04:14.891Z,786.70
2019-04-16T22:06:44.852Z,826.50
2019-04-16T22:09:14.096Z,821.30
2019-04-16T22:11:44.353Z,777.27
2019-04-16T22:14:13.549Z,807.93
2019-04-16T22:16:42.558Z,844.63
2019-04-16T22:19:14.044Z,840.43
2019-04-16T22:21:42.731Z,847.70
2019-04-16T22:24:14.126Z,874.80
2019-04-16T22:26:44.492Z,844.53
2019-04-16T22:29:16.872Z,886.47
2019-04-16T22:31:47.165Z,840.00
2019-04-16T22:34:16.380Z,838.87
2019-04-16T22:36:45.523Z,1006.50
2019-04-16T22:39:16.441Z,990.73
2019-04-16T22:41:45.503Z,1084.80
2019-04-16T22:44:16.174Z,1202.50
2019-04-16T22:46:46.922Z,1592.73
2019-04-16T22:49:18.697Z,1696.47
2019-04-16T22:51:46.676Z,1898.87
2019-04-16T22:54:17.632Z,1865.77
2019-04-16T22:56:48.999Z,1905.20
2019-04-16T22:59:18.006Z,1999.90
2019-04-16T23:01:48.878Z,1938.10
2019-04-16T23:04:17.965Z,1927.97
2019-04-16T23:06:47.056Z,1755.87
2019-04-16T23:09:17.007Z,1740.27
2019-04-16T23:11:46.928Z,1645.17
2019-04-16T23:14:15.970Z,1708.33
2019-04-16T23:16:44.998Z,1808.33
2019-04-16T23:19:17.518Z,1701.70
2019-04-16T23:21:45.988Z,1572.87
2019-04-16T23:24:15.108Z,1633.90
2019-04-16T23:26:44.142Z,1675.60
2019-04-16T23:29:15.785Z,1596.47
2019-04-16T23:31:44.134Z,1340.97
2019-04-16T23:34:13.531Z,1318.93
2019-04-16T23:36:44.546Z,1340.50
2019-04-16T23:39:14.075Z,1425.60
2019-04-16T23:41:47.989Z,1110.20
2019-04-16T23:44:16.556Z,807.37
2019-04-16T23:46:47.461Z,1275.50
2019-04-16T23:49:20.018Z,1222.77
2019-04-16T23:51:51.179Z,1158.73
2019-04-16T23:54:22.074Z,1213.37
2019-04-16T23:56:53.907Z,1797.83
2019-04-16T23:59:25.059Z,1962.00
